Guatemala, Guatemala

8:28 AM CST on September 01, 2015 (GMT -0600)
La Aurora International | | Change Station
CLOSE
Current Station
Airport
Location: Guatemala,
Elevation: 4885 ft
Nearby Weather Stations

Elev 4885 ft 14.58 °N, 90.53 °W | Updated 28 minutes ago

Overcast
Overcast
68 °F
Feels Like 68 °F
N
9
Wind Variable Wind from North

Today
High -- | Low -- °F
--% Chance of Precip.
Yesterday
High -- | Low -- °F
Precip. -- in
5:50 AM 6:14 PM
Waning Gibbous, 88% visible
Pressure 30.30 in
Visibility 6.2 miles
Clouds Few 1400 ft
Overcast 20000 ft
Dew Point 63 °F
Humidity 83%
Rainfall 0.00 in
Snow Depth Not available.
UV 1 out of 12
Pollen Not available.
Air Quality Not available.
Flu Activity Not available.
METAR MGGT 011400Z 36008KT 9999 FEW014 OVC200 20/17 Q1026 A3030
Pressure 30.30 in
Visibility 6.2 miles
Clouds Few 1400 ft
Overcast 20000 ft
Dew Point 63 °F
Humidity 83%
Rainfall 0.00 in
Snow Depth Not available.
UV 1 out of 12
Pollen Not available.
Air Quality Not available.
Flu Activity Not available.
METAR MGGT 011400Z 36008KT 9999 FEW014 OVC200 20/17 Q1026 A3030

10-Day Weather Forecast

×

Almanac

Astronomy

Sep. 01, 2015 Rise Set
Actual Time
Civil Twilight
Nautical Twilight
Astronomical Twilight
Moon
Length of Visible Light
Length of Day
Tomorrow will be .
, % of the Moon is Illuminated

Today's Extremes

Country Highs Country Lows

Community

WunderPhotos

Upload Photos

1,851,512 photos uploaded!

WunderBlogs® & News

Nearby

Air Quality

  Air Quality AQ Index Pollutant
Not available.

Snow Depth

Station Depth Elevation

Earthquake Activity

City Distance Mag. Time & Date
Minimum magnitude displayed is 2.5.

Coastal Water Temperatures

Place Temperature

Stations

Nearby Weather Stations

Station Location Temp. Windchill Dew Point Humidity Wind Precip. Elev Updated Type